EWG12JS EDDB-LOWG
Flight info
| Callsign | EWG12JS |
|---|---|
| Flight time | 1h 1m |
| Altitude | 34000 |
| Route | LUROS3Q LUROS Y211 BEBKU Z36 MAREM/N0433F350 DCT APRAQ DCT ADLET DCT LIMRA DCT LEOBE LEOBE2M |
| Aircraft | A319/M-SDE3FGHIRWY/LB1 |
Departure
| Time | 2026-04-30 20:10 |
|---|---|
| Airport | Berlin Brandenburg Airport (EDDB) |
Arrival
| Time | 2026-04-30 21:11 |
|---|---|
| Airport | Graz Airport (LOWG) |
| Time | Latitude | Longitude | Altitude | Speed | Heading |
|---|---|---|---|---|---|
| 2026-04-30 19:42 | 52.36188 | 13.51551 | 161 ft | 0 kts | 340° |
| 2026-04-30 19:59 | 52.36180 | 13.51556 | 158 ft | 2 kts | 339° |
| 2026-04-30 19:59 | 52.36149 | 13.51574 | 158 ft | 2 kts | 339° |
| 2026-04-30 20:00 | 52.36134 | 13.51584 | 158 ft | 2 kts | 335° |
| 2026-04-30 20:00 | 52.36119 | 13.51597 | 159 ft | 2 kts | 291° |
| 2026-04-30 20:00 | 52.36119 | 13.51612 | 159 ft | 0 kts | 254° |
| 2026-04-30 20:03 | 52.36118 | 13.51607 | 159 ft | 2 kts | 253° |
| 2026-04-30 20:03 | 52.36105 | 13.51554 | 159 ft | 6 kts | 249° |
| 2026-04-30 20:03 | 52.36084 | 13.51465 | 159 ft | 11 kts | 249° |
| 2026-04-30 20:03 | 52.36054 | 13.51337 | 158 ft | 14 kts | 249° |
| 2026-04-30 20:04 | 52.36017 | 13.51184 | 158 ft | 15 kts | 249° |
| 2026-04-30 20:04 | 52.35980 | 13.51024 | 158 ft | 15 kts | 249° |
| 2026-04-30 20:04 | 52.35947 | 13.50881 | 158 ft | 12 kts | 249° |
| 2026-04-30 20:05 | 52.35820 | 13.50770 | 158 ft | 12 kts | 218° |
| 2026-04-30 20:05 | 52.35782 | 13.50647 | 158 ft | 13 kts | 248° |
| 2026-04-30 20:05 | 52.35715 | 13.50368 | 159 ft | 14 kts | 249° |
| 2026-04-30 20:06 | 52.35679 | 13.50217 | 159 ft | 15 kts | 249° |
| 2026-04-30 20:06 | 52.35641 | 13.50060 | 158 ft | 15 kts | 248° |
| 2026-04-30 20:06 | 52.35600 | 13.49896 | 158 ft | 16 kts | 248° |
| 2026-04-30 20:06 | 52.35557 | 13.49725 | 158 ft | 17 kts | 248° |
| 2026-04-30 20:07 | 52.35513 | 13.49547 | 158 ft | 17 kts | 248° |
| 2026-04-30 20:07 | 52.35468 | 13.49365 | 159 ft | 18 kts | 248° |
| 2026-04-30 20:07 | 52.35377 | 13.48973 | 158 ft | 19 kts | 250° |
| 2026-04-30 20:08 | 52.35330 | 13.48767 | 158 ft | 20 kts | 248° |
| 2026-04-30 20:08 | 52.35277 | 13.48561 | 158 ft | 19 kts | 247° |
| 2026-04-30 20:08 | 52.35207 | 13.48487 | 158 ft | 12 kts | 171° |
| 2026-04-30 20:08 | 52.35130 | 13.48541 | 158 ft | 12 kts | 137° |
| 2026-04-30 20:09 | 52.35097 | 13.48673 | 159 ft | 13 kts | 98° |
| 2026-04-30 20:09 | 52.35086 | 13.48823 | 159 ft | 14 kts | 97° |
| 2026-04-30 20:09 | 52.35092 | 13.49150 | 159 ft | 19 kts | 69° |
| 2026-04-30 20:10 | 52.35547 | 13.51078 | 210 ft | 151 kts | 69° |
| 2026-04-30 20:10 | 52.35869 | 13.52694 | 881 ft | 152 kts | 78° |
| 2026-04-30 20:10 | 52.35652 | 13.54387 | 1467 ft | 163 kts | 120° |
| 2026-04-30 20:11 | 52.33649 | 13.57184 | 2248 ft | 212 kts | 142° |
| 2026-04-30 20:11 | 52.32423 | 13.58644 | 2992 ft | 219 kts | 142° |
| 2026-04-30 20:11 | 52.31303 | 13.60255 | 4040 ft | 212 kts | 127° |
| 2026-04-30 20:12 | 52.30974 | 13.64991 | 5179 ft | 241 kts | 70° |
| 2026-04-30 20:12 | 52.31532 | 13.67574 | 6248 ft | 235 kts | 68° |
| 2026-04-30 20:12 | 52.32085 | 13.70051 | 7387 ft | 230 kts | 68° |
| 2026-04-30 20:13 | 52.32619 | 13.72512 | 8368 ft | 230 kts | 70° |
| 2026-04-30 20:13 | 52.32880 | 13.75121 | 9192 ft | 242 kts | 85° |
| 2026-04-30 20:13 | 52.32832 | 13.78013 | 9693 ft | 263 kts | 89° |
| 2026-04-30 20:13 | 52.32735 | 13.81048 | 10497 ft | 270 kts | 89° |
| 2026-04-30 20:14 | 52.32617 | 13.84132 | 11359 ft | 273 kts | 89° |
| 2026-04-30 20:14 | 52.32496 | 13.87192 | 12235 ft | 274 kts | 89° |
| 2026-04-30 20:14 | 52.32371 | 13.90315 | 13132 ft | 276 kts | 89° |
| 2026-04-30 20:14 | 52.32243 | 13.93459 | 14006 ft | 278 kts | 89° |
| 2026-04-30 20:15 | 52.32118 | 13.96621 | 14793 ft | 280 kts | 89° |
| 2026-04-30 20:15 | 52.31995 | 13.99819 | 15549 ft | 283 kts | 88° |
| 2026-04-30 20:15 | 52.31816 | 14.03049 | 16256 ft | 291 kts | 96° |
| 2026-04-30 20:15 | 52.31001 | 14.06165 | 16941 ft | 310 kts | 118° |
| 2026-04-30 20:16 | 52.29389 | 14.08669 | 17425 ft | 339 kts | 142° |
| 2026-04-30 20:16 | 52.27087 | 14.10006 | 17568 ft | 375 kts | 163° |
| 2026-04-30 20:16 | 52.24456 | 14.10690 | 17960 ft | 389 kts | 167° |
| 2026-04-30 20:16 | 52.21745 | 14.11205 | 18556 ft | 396 kts | 168° |
| 2026-04-30 20:17 | 52.18981 | 14.11654 | 19133 ft | 401 kts | 169° |
| 2026-04-30 20:17 | 52.16197 | 14.12110 | 19711 ft | 404 kts | 169° |
| 2026-04-30 20:17 | 52.13387 | 14.12609 | 20301 ft | 408 kts | 168° |
| 2026-04-30 20:17 | 52.10558 | 14.13154 | 20889 ft | 411 kts | 167° |
| 2026-04-30 20:18 | 52.07714 | 14.13739 | 21466 ft | 414 kts | 167° |
| 2026-04-30 20:18 | 52.04840 | 14.14343 | 22048 ft | 418 kts | 167° |
| 2026-04-30 20:18 | 52.01986 | 14.14947 | 22621 ft | 421 kts | 167° |
| 2026-04-30 20:18 | 51.99063 | 14.15563 | 23184 ft | 425 kts | 167° |
| 2026-04-30 20:19 | 51.96114 | 14.16177 | 23750 ft | 429 kts | 168° |
| 2026-04-30 20:19 | 51.94144 | 14.16559 | 24081 ft | 433 kts | 170° |
| 2026-04-30 20:19 | 51.90072 | 14.16415 | 24682 ft | 444 kts | 184° |
| 2026-04-30 20:19 | 51.87027 | 14.15330 | 25115 ft | 452 kts | 195° |
| 2026-04-30 20:20 | 51.84082 | 14.13450 | 25550 ft | 457 kts | 202° |
| 2026-04-30 20:20 | 51.81158 | 14.11396 | 25984 ft | 460 kts | 201° |
| 2026-04-30 20:20 | 51.78208 | 14.09343 | 26419 ft | 463 kts | 201° |
| 2026-04-30 20:20 | 51.75280 | 14.07316 | 26843 ft | 466 kts | 201° |
| 2026-04-30 20:21 | 51.72291 | 14.05256 | 27258 ft | 468 kts | 201° |
| 2026-04-30 20:21 | 51.69286 | 14.03197 | 27682 ft | 471 kts | 201° |
| 2026-04-30 20:21 | 51.66255 | 14.01126 | 28095 ft | 474 kts | 201° |
| 2026-04-30 20:21 | 51.63205 | 13.99042 | 28504 ft | 478 kts | 201° |
| 2026-04-30 20:22 | 51.60142 | 13.96945 | 28913 ft | 480 kts | 201° |
| 2026-04-30 20:22 | 51.57055 | 13.94831 | 29317 ft | 483 kts | 201° |
| 2026-04-30 20:22 | 51.53954 | 13.92707 | 29715 ft | 486 kts | 201° |
| 2026-04-30 20:22 | 51.50830 | 13.90573 | 30087 ft | 489 kts | 201° |
| 2026-04-30 20:23 | 51.47731 | 13.88472 | 30463 ft | 491 kts | 199° |
| 2026-04-30 20:23 | 51.44480 | 13.86794 | 30777 ft | 491 kts | 190° |
| 2026-04-30 20:23 | 51.41124 | 13.85744 | 31081 ft | 492 kts | 186° |
| 2026-04-30 20:23 | 51.37751 | 13.84778 | 31388 ft | 494 kts | 187° |
| 2026-04-30 20:24 | 51.34354 | 13.83797 | 31699 ft | 497 kts | 187° |
| 2026-04-30 20:24 | 51.30946 | 13.82810 | 32008 ft | 499 kts | 187° |
| 2026-04-30 20:24 | 51.27528 | 13.81818 | 32363 ft | 499 kts | 187° |
| 2026-04-30 20:24 | 51.24112 | 13.80830 | 32804 ft | 498 kts | 187° |
| 2026-04-30 20:25 | 51.17347 | 13.78890 | 33652 ft | 497 kts | 187° |
| 2026-04-30 20:25 | 51.13946 | 13.77917 | 34088 ft | 496 kts | 187° |
| 2026-04-30 20:26 | 51.07178 | 13.75987 | 34437 ft | 487 kts | 186° |
| 2026-04-30 20:26 | 50.97298 | 13.73181 | 34436 ft | 479 kts | 186° |
| 2026-04-30 20:27 | 50.84322 | 13.68655 | 34439 ft | 481 kts | 193° |
| 2026-04-30 20:28 | 50.71344 | 13.64372 | 34444 ft | 470 kts | 173° |
| 2026-04-30 20:29 | 50.66043 | 13.65516 | 34437 ft | 458 kts | 158° |
| 2026-04-30 20:30 | 50.55946 | 13.70272 | 34430 ft | 456 kts | 156° |
| 2026-04-30 20:31 | 50.38710 | 13.78315 | 34434 ft | 456 kts | 156° |
| 2026-04-30 20:32 | 50.23489 | 13.85398 | 34428 ft | 457 kts | 156° |
| 2026-04-30 20:33 | 50.14387 | 13.89615 | 34455 ft | 457 kts | 155° |
| 2026-04-30 20:34 | 50.05245 | 13.93828 | 34435 ft | 457 kts | 155° |
| 2026-04-30 20:35 | 49.96102 | 13.98016 | 34432 ft | 457 kts | 155° |
| 2026-04-30 20:35 | 49.87004 | 14.02176 | 34419 ft | 456 kts | 155° |
| 2026-04-30 20:36 | 49.80915 | 14.04953 | 34421 ft | 456 kts | 155° |
| 2026-04-30 20:37 | 49.71782 | 14.09100 | 34411 ft | 456 kts | 155° |
| 2026-04-30 20:37 | 49.65675 | 14.11825 | 34444 ft | 460 kts | 158° |
| 2026-04-30 20:38 | 49.59280 | 14.13196 | 34431 ft | 470 kts | 166° |
| 2026-04-30 20:38 | 49.52780 | 14.14261 | 34418 ft | 470 kts | 166° |
| 2026-04-30 20:39 | 49.43014 | 14.15878 | 34420 ft | 471 kts | 166° |
| 2026-04-30 20:40 | 49.33286 | 14.17497 | 34410 ft | 471 kts | 166° |
| 2026-04-30 20:40 | 49.26769 | 14.18579 | 34407 ft | 471 kts | 166° |
| 2026-04-30 20:41 | 49.16987 | 14.20182 | 34415 ft | 471 kts | 166° |
| 2026-04-30 20:41 | 49.10471 | 14.21244 | 34414 ft | 471 kts | 166° |
| 2026-04-30 20:42 | 49.03995 | 14.22298 | 34432 ft | 471 kts | 166° |
| 2026-04-30 20:43 | 48.94199 | 14.23889 | 34423 ft | 472 kts | 166° |
| 2026-04-30 20:43 | 48.87670 | 14.24948 | 34412 ft | 472 kts | 166° |
| 2026-04-30 20:44 | 48.77917 | 14.26528 | 34407 ft | 472 kts | 166° |
| 2026-04-30 20:45 | 48.64833 | 14.28638 | 34407 ft | 473 kts | 166° |
| 2026-04-30 20:45 | 48.58285 | 14.29685 | 34424 ft | 473 kts | 166° |
| 2026-04-30 20:46 | 48.45343 | 14.32430 | 34406 ft | 470 kts | 162° |
| 2026-04-30 20:47 | 48.35646 | 14.34779 | 34450 ft | 471 kts | 163° |
| 2026-04-30 20:48 | 48.25951 | 14.36961 | 34392 ft | 472 kts | 163° |
| 2026-04-30 20:48 | 48.22686 | 14.37694 | 33663 ft | 477 kts | 163° |
| 2026-04-30 20:48 | 48.19420 | 14.38424 | 33098 ft | 473 kts | 163° |
| 2026-04-30 20:49 | 48.16171 | 14.39149 | 32509 ft | 470 kts | 163° |
| 2026-04-30 20:49 | 48.12948 | 14.39871 | 31935 ft | 467 kts | 163° |
| 2026-04-30 20:49 | 48.09745 | 14.40589 | 31358 ft | 464 kts | 162° |
| 2026-04-30 20:50 | 48.03383 | 14.42016 | 30186 ft | 460 kts | 162° |
| 2026-04-30 20:50 | 48.00282 | 14.42710 | 29643 ft | 455 kts | 162° |
| 2026-04-30 20:50 | 47.97169 | 14.43404 | 29101 ft | 450 kts | 162° |
| 2026-04-30 20:50 | 47.94112 | 14.44174 | 28576 ft | 439 kts | 157° |
| 2026-04-30 20:51 | 47.91269 | 14.45527 | 28131 ft | 420 kts | 147° |
| 2026-04-30 20:51 | 47.86459 | 14.49729 | 27306 ft | 390 kts | 133° |
| 2026-04-30 20:51 | 47.84269 | 14.52084 | 26936 ft | 387 kts | 133° |
| 2026-04-30 20:52 | 47.82130 | 14.54369 | 26533 ft | 380 kts | 133° |
| 2026-04-30 20:52 | 47.79992 | 14.56640 | 26154 ft | 376 kts | 134° |
| 2026-04-30 20:52 | 47.75775 | 14.61121 | 25368 ft | 369 kts | 134° |
| 2026-04-30 20:53 | 47.73690 | 14.63340 | 24964 ft | 367 kts | 134° |
| 2026-04-30 20:53 | 47.71625 | 14.65534 | 24571 ft | 363 kts | 134° |
| 2026-04-30 20:53 | 47.69579 | 14.67706 | 24163 ft | 361 kts | 134° |
| 2026-04-30 20:54 | 47.65544 | 14.71995 | 23304 ft | 356 kts | 135° |
| 2026-04-30 20:54 | 47.63540 | 14.74116 | 22897 ft | 353 kts | 135° |
| 2026-04-30 20:54 | 47.61552 | 14.76215 | 22487 ft | 348 kts | 135° |
| 2026-04-30 20:55 | 47.57680 | 14.80298 | 21735 ft | 338 kts | 136° |
| 2026-04-30 20:55 | 47.55770 | 14.82321 | 21317 ft | 337 kts | 136° |
| 2026-04-30 20:55 | 47.53865 | 14.84333 | 20919 ft | 336 kts | 136° |
| 2026-04-30 20:56 | 47.50075 | 14.88329 | 20137 ft | 334 kts | 136° |
| 2026-04-30 20:56 | 47.48211 | 14.90291 | 19757 ft | 333 kts | 136° |
| 2026-04-30 20:56 | 47.44444 | 14.94241 | 18995 ft | 332 kts | 137° |
| 2026-04-30 20:57 | 47.42558 | 14.96217 | 18589 ft | 332 kts | 137° |
| 2026-04-30 20:57 | 47.40674 | 14.98184 | 18186 ft | 331 kts | 137° |
| 2026-04-30 20:57 | 47.38801 | 15.00137 | 17831 ft | 329 kts | 138° |
| 2026-04-30 20:58 | 47.35086 | 15.04011 | 17056 ft | 325 kts | 138° |
| 2026-04-30 20:58 | 47.33270 | 15.05908 | 16685 ft | 323 kts | 138° |
| 2026-04-30 20:58 | 47.31439 | 15.07823 | 16312 ft | 322 kts | 138° |
| 2026-04-30 20:58 | 47.29607 | 15.09736 | 15939 ft | 324 kts | 139° |
| 2026-04-30 20:59 | 47.25932 | 15.13565 | 15181 ft | 323 kts | 139° |
| 2026-04-30 20:59 | 47.24094 | 15.15476 | 14798 ft | 324 kts | 139° |
| 2026-04-30 21:00 | 47.20436 | 15.19266 | 14011 ft | 321 kts | 139° |
| 2026-04-30 21:00 | 47.16851 | 15.22973 | 13261 ft | 315 kts | 140° |
| 2026-04-30 21:01 | 47.13275 | 15.26632 | 12509 ft | 314 kts | 144° |
| 2026-04-30 21:01 | 47.11287 | 15.27992 | 12115 ft | 318 kts | 158° |
| 2026-04-30 21:01 | 47.06949 | 15.29331 | 11304 ft | 318 kts | 166° |
| 2026-04-30 21:02 | 47.04780 | 15.29925 | 10908 ft | 317 kts | 166° |
| 2026-04-30 21:02 | 47.02618 | 15.30523 | 10516 ft | 315 kts | 166° |
| 2026-04-30 21:02 | 47.00547 | 15.31096 | 10215 ft | 302 kts | 166° |
| 2026-04-30 21:02 | 46.98506 | 15.31660 | 9722 ft | 295 kts | 166° |
| 2026-04-30 21:03 | 46.96517 | 15.32206 | 9323 ft | 286 kts | 166° |
| 2026-04-30 21:03 | 46.94597 | 15.32729 | 8952 ft | 276 kts | 166° |
| 2026-04-30 21:03 | 46.92740 | 15.33239 | 8605 ft | 267 kts | 166° |
| 2026-04-30 21:03 | 46.90974 | 15.33724 | 8438 ft | 249 kts | 166° |
| 2026-04-30 21:04 | 46.89321 | 15.34233 | 8307 ft | 238 kts | 164° |
| 2026-04-30 21:04 | 46.87725 | 15.34777 | 8032 ft | 234 kts | 163° |
| 2026-04-30 21:04 | 46.84601 | 15.35867 | 7324 ft | 231 kts | 164° |
| 2026-04-30 21:05 | 46.83043 | 15.36407 | 6947 ft | 230 kts | 165° |
| 2026-04-30 21:05 | 46.81508 | 15.36943 | 6715 ft | 221 kts | 161° |
| 2026-04-30 21:05 | 46.80231 | 15.37987 | 6453 ft | 206 kts | 130° |
| 2026-04-30 21:05 | 46.79490 | 15.39684 | 6113 ft | 196 kts | 103° |
| 2026-04-30 21:06 | 46.79360 | 15.41597 | 5787 ft | 187 kts | 78° |
| 2026-04-30 21:06 | 46.79796 | 15.43337 | 5463 ft | 182 kts | 57° |
| 2026-04-30 21:06 | 46.80448 | 15.44911 | 5167 ft | 181 kts | 57° |
| 2026-04-30 21:06 | 46.81082 | 15.46454 | 4855 ft | 179 kts | 55° |
| 2026-04-30 21:07 | 46.81979 | 15.47672 | 4564 ft | 177 kts | 29° |
| 2026-04-30 21:07 | 46.83156 | 15.48176 | 4248 ft | 179 kts | 7° |
| 2026-04-30 21:07 | 46.84395 | 15.47991 | 3969 ft | 179 kts | 352° |
| 2026-04-30 21:07 | 46.85617 | 15.47652 | 3553 ft | 178 kts | 353° |
| 2026-04-30 21:08 | 46.86844 | 15.47323 | 3346 ft | 180 kts | 353° |
| 2026-04-30 21:08 | 46.88078 | 15.46989 | 3109 ft | 181 kts | 353° |
| 2026-04-30 21:08 | 46.89290 | 15.46657 | 2867 ft | 173 kts | 353° |
| 2026-04-30 21:08 | 46.90441 | 15.46341 | 2645 ft | 162 kts | 353° |
| 2026-04-30 21:09 | 46.91494 | 15.46051 | 2427 ft | 146 kts | 353° |
| 2026-04-30 21:09 | 46.92438 | 15.45792 | 2237 ft | 135 kts | 353° |
| 2026-04-30 21:09 | 46.93338 | 15.45546 | 2041 ft | 130 kts | 352° |
| 2026-04-30 21:09 | 46.94224 | 15.45304 | 1852 ft | 129 kts | 351° |
| 2026-04-30 21:10 | 46.95107 | 15.45064 | 1676 ft | 129 kts | 350° |
| 2026-04-30 21:10 | 46.95991 | 15.44827 | 1505 ft | 129 kts | 349° |
| 2026-04-30 21:10 | 46.96870 | 15.44583 | 1329 ft | 128 kts | 348° |
| 2026-04-30 21:10 | 46.97742 | 15.44337 | 1155 ft | 127 kts | 348° |
| 2026-04-30 21:11 | 46.98555 | 15.44108 | 1107 ft | 106 kts | 350° |
| 2026-04-30 21:11 | 46.99109 | 15.43961 | 1112 ft | 56 kts | 349° |
| 2026-04-30 21:11 | 46.99340 | 15.43894 | 1114 ft | 27 kts | 348° |
| 2026-04-30 21:11 | 46.99522 | 15.43845 | 1113 ft | 26 kts | 353° |
| 2026-04-30 21:12 | 46.99713 | 15.43852 | 1104 ft | 29 kts | 9° |
| 2026-04-30 21:12 | 46.99872 | 15.43918 | 1109 ft | 16 kts | 19° |
| 2026-04-30 21:12 | 46.99927 | 15.43992 | 1108 ft | 7 kts | 71° |
| 2026-04-30 21:12 | 46.99936 | 15.44062 | 1104 ft | 7 kts | 81° |
| 2026-04-30 21:13 | 46.99907 | 15.44141 | 1110 ft | 12 kts | 155° |
| 2026-04-30 21:13 | 46.99827 | 15.44173 | 1107 ft | 11 kts | 150° |
| 2026-04-30 21:13 | 46.99816 | 15.44267 | 1114 ft | 9 kts | 81° |
| 2026-04-30 21:13 | 46.99827 | 15.44350 | 1111 ft | 8 kts | 79° |
| 2026-04-30 21:14 | 46.99822 | 15.44391 | 1114 ft | 1 kts | 158° |
| 2026-04-30 21:14 | 46.99799 | 15.44402 | 1116 ft | 5 kts | 168° |
| 2026-04-30 21:14 | 46.99779 | 15.44408 | 1113 ft | 0 kts | 167° |